sensor_id;sensor_type;location;lat;lon;timestamp;pressure;altitude;pressure_sealevel;temperature;humidity
8653;BME280;4364;52.426;9.424;2022-09-16T00:02:01;100248.84;;;11.08;89.44
8653;BME280;4364;52.426;9.424;2022-09-16T00:04:27;100253.31;;;10.99;89.61
8653;BME280;4364;52.426;9.424;2022-09-16T00:06:54;100244.56;;;11.02;89.01
8653;BME280;4364;52.426;9.424;2022-09-16T00:09:20;100263.69;;;10.97;89.92
8653;BME280;4364;52.426;9.424;2022-09-16T00:11:47;100260.44;;;10.95;89.56
8653;BME280;4364;52.426;9.424;2022-09-16T00:14:13;100261.38;;;10.85;90.16
8653;BME280;4364;52.426;9.424;2022-09-16T00:16:40;100263.63;;;10.78;90.78
8653;BME280;4364;52.426;9.424;2022-09-16T00:19:07;100261.66;;;10.84;90.97
8653;BME280;4364;52.426;9.424;2022-09-16T00:21:34;100260.34;;;10.81;90.83
8653;BME280;4364;52.426;9.424;2022-09-16T00:24:02;100267.25;;;10.68;91.59
8653;BME280;4364;52.426;9.424;2022-09-16T00:26:28;100250.19;;;10.63;91.84
8653;BME280;4364;52.426;9.424;2022-09-16T00:28:55;100262.09;;;10.67;92.16
8653;BME280;4364;52.426;9.424;2022-09-16T00:31:22;100261.81;;;10.68;92.20
8653;BME280;4364;52.426;9.424;2022-09-16T00:33:48;100259.44;;;10.62;92.36
8653;BME280;4364;52.426;9.424;2022-09-16T00:36:18;100257.53;;;10.62;92.22
8653;BME280;4364;52.426;9.424;2022-09-16T00:38:49;100257.34;;;10.53;92.50
8653;BME280;4364;52.426;9.424;2022-09-16T00:41:19;100257.81;;;10.61;92.29
8653;BME280;4364;52.426;9.424;2022-09-16T00:43:53;100255.75;;;10.52;92.82
8653;BME280;4364;52.426;9.424;2022-09-16T00:46:31;100267.13;;;10.54;92.43
8653;BME280;4364;52.426;9.424;2022-09-16T00:49:03;100266.66;;;10.47;92.98
8653;BME280;4364;52.426;9.424;2022-09-16T00:51:32;100261.22;;;10.47;93.00
8653;BME280;4364;52.426;9.424;2022-09-16T00:54:02;100263.69;;;10.44;93.28
8653;BME280;4364;52.426;9.424;2022-09-16T00:56:34;100264.53;;;10.44;92.88
8653;BME280;4364;52.426;9.424;2022-09-16T00:59:27;100259.88;;;10.45;93.47
8653;BME280;4364;52.426;9.424;2022-09-16T01:01:57;100252.81;;;10.44;93.28
8653;BME280;4364;52.426;9.424;2022-09-16T01:04:30;100260.59;;;10.55;93.21
8653;BME280;4364;52.426;9.424;2022-09-16T01:06:58;100259.31;;;10.48;92.50
8653;BME280;4364;52.426;9.424;2022-09-16T01:09:25;100265.22;;;10.55;92.68
8653;BME280;4364;52.426;9.424;2022-09-16T01:11:53;100258.47;;;10.52;92.42
8653;BME280;4364;52.426;9.424;2022-09-16T01:14:20;100258.69;;;10.56;92.13
8653;BME280;4364;52.426;9.424;2022-09-16T01:17:27;100262.63;;;10.69;91.44
8653;BME280;4364;52.426;9.424;2022-09-16T01:20:28;100256.63;;;10.72;90.99
8653;BME280;4364;52.426;9.424;2022-09-16T01:31:55;100265.16;;;10.60;92.03
8653;BME280;4364;52.426;9.424;2022-09-16T01:37:23;100259.97;;;10.64;91.66
8653;BME280;4364;52.426;9.424;2022-09-16T01:40:01;100262.44;;;10.60;91.54
8653;BME280;4364;52.426;9.424;2022-09-16T01:42:44;100261.38;;;10.61;91.21
8653;BME280;4364;52.426;9.424;2022-09-16T01:45:35;100259.28;;;10.53;92.22
8653;BME280;4364;52.426;9.424;2022-09-16T01:48:41;100259.59;;;10.46;93.06
8653;BME280;4364;52.426;9.424;2022-09-16T01:51:13;100255.25;;;10.45;92.99
8653;BME280;4364;52.426;9.424;2022-09-16T01:53:56;100249.53;;;10.47;92.99
8653;BME280;4364;52.426;9.424;2022-09-16T01:59:04;100255.34;;;10.64;92.12
8653;BME280;4364;52.426;9.424;2022-09-16T02:04:14;100260.31;;;10.57;92.57
8653;BME280;4364;52.426;9.424;2022-09-16T02:06:43;100259.97;;;10.64;92.60
8653;BME280;4364;52.426;9.424;2022-09-16T02:09:29;100249.84;;;10.69;91.75
8653;BME280;4364;52.426;9.424;2022-09-16T02:12:00;100255.81;;;10.71;91.75
8653;BME280;4364;52.426;9.424;2022-09-16T02:14:35;100253.03;;;10.77;91.21
8653;BME280;4364;52.426;9.424;2022-09-16T02:17:08;100250.59;;;10.75;91.51
8653;BME280;4364;52.426;9.424;2022-09-16T02:19:42;100253.91;;;10.72;91.59
8653;BME280;4364;52.426;9.424;2022-09-16T02:22:13;100238.97;;;10.69;91.36
8653;BME280;4364;52.426;9.424;2022-09-16T02:24:47;100254.53;;;10.64;92.04
8653;BME280;4364;52.426;9.424;2022-09-16T02:27:18;100249.66;;;10.61;92.27
8653;BME280;4364;52.426;9.424;2022-09-16T02:29:52;100243.06;;;10.67;91.55
8653;BME280;4364;52.426;9.424;2022-09-16T02:32:23;100244.41;;;10.69;92.02
8653;BME280;4364;52.426;9.424;2022-09-16T02:34:53;100242.03;;;10.63;92.08
8653;BME280;4364;52.426;9.424;2022-09-16T02:37:28;100237.47;;;10.58;92.35
8653;BME280;4364;52.426;9.424;2022-09-16T02:39:57;100246.66;;;10.62;91.92
8653;BME280;4364;52.426;9.424;2022-09-16T02:42:28;100238.78;;;10.61;91.63
8653;BME280;4364;52.426;9.424;2022-09-16T02:44:56;100236.06;;;10.61;92.11
8653;BME280;4364;52.426;9.424;2022-09-16T02:47:53;100237.41;;;10.63;91.99
8653;BME280;4364;52.426;9.424;2022-09-16T02:53:35;100249.25;;;10.48;92.16
8653;BME280;4364;52.426;9.424;2022-09-16T02:56:14;100252.78;;;10.49;92.00
8653;BME280;4364;52.426;9.424;2022-09-16T02:58:43;100250.34;;;10.47;92.36
8653;BME280;4364;52.426;9.424;2022-09-16T03:01:11;100257.69;;;10.47;91.91
8653;BME280;4364;52.426;9.424;2022-09-16T03:03:39;100255.78;;;10.47;93.04
8653;BME280;4364;52.426;9.424;2022-09-16T03:06:13;100246.53;;;10.48;92.06
8653;BME280;4364;52.426;9.424;2022-09-16T03:08:41;100256.25;;;10.54;92.04
8653;BME280;4364;52.426;9.424;2022-09-16T03:16:57;100260.00;;;10.29;93.49
8653;BME280;4364;52.426;9.424;2022-09-16T03:23:11;100252.88;;;10.38;93.17
8653;BME280;4364;52.426;9.424;2022-09-16T03:29:06;100258.59;;;10.37;93.54
8653;BME280;4364;52.426;9.424;2022-09-16T03:31:50;100253.72;;;10.34;93.94
8653;BME280;4364;52.426;9.424;2022-09-16T03:34:33;100253.19;;;10.32;94.46
8653;BME280;4364;52.426;9.424;2022-09-16T03:37:05;100247.09;;;10.45;94.37
8653;BME280;4364;52.426;9.424;2022-09-16T03:39:33;100250.59;;;10.51;93.52
8653;BME280;4364;52.426;9.424;2022-09-16T03:42:02;100249.94;;;10.59;92.63
8653;BME280;4364;52.426;9.424;2022-09-16T03:44:31;100249.47;;;10.52;92.68
8653;BME280;4364;52.426;9.424;2022-09-16T03:46:58;100239.94;;;10.54;92.76
8653;BME280;4364;52.426;9.424;2022-09-16T03:49:25;100252.09;;;10.62;92.67
8653;BME280;4364;52.426;9.424;2022-09-16T03:51:51;100245.34;;;10.60;92.66
8653;BME280;4364;52.426;9.424;2022-09-16T03:54:19;100244.66;;;10.73;91.84
8653;BME280;4364;52.426;9.424;2022-09-16T03:56:45;100240.88;;;10.69;91.87
8653;BME280;4364;52.426;9.424;2022-09-16T03:59:12;100241.75;;;10.64;92.43
8653;BME280;4364;52.426;9.424;2022-09-16T04:01:38;100225.72;;;10.63;92.13
8653;BME280;4364;52.426;9.424;2022-09-16T04:04:06;100227.63;;;10.62;92.14
8653;BME280;4364;52.426;9.424;2022-09-16T04:06:33;100240.69;;;10.60;92.03
8653;BME280;4364;52.426;9.424;2022-09-16T04:09:04;100237.81;;;10.75;91.21
8653;BME280;4364;52.426;9.424;2022-09-16T04:11:33;100226.41;;;10.73;90.42
8653;BME280;4364;52.426;9.424;2022-09-16T04:14:02;100230.41;;;10.81;89.93
8653;BME280;4364;52.426;9.424;2022-09-16T04:16:29;100231.50;;;10.80;89.77
8653;BME280;4364;52.426;9.424;2022-09-16T04:18:56;100236.72;;;10.77;90.01
8653;BME280;4364;52.426;9.424;2022-09-16T04:21:23;100231.84;;;10.73;90.52
8653;BME280;4364;52.426;9.424;2022-09-16T04:23:50;100232.94;;;10.72;90.76
8653;BME280;4364;52.426;9.424;2022-09-16T04:26:26;100235.97;;;10.71;91.01
8653;BME280;4364;52.426;9.424;2022-09-16T04:28:53;100228.41;;;10.68;91.53
8653;BME280;4364;52.426;9.424;2022-09-16T04:31:20;100223.47;;;10.70;91.01
8653;BME280;4364;52.426;9.424;2022-09-16T04:33:46;100233.50;;;10.74;90.95
8653;BME280;4364;52.426;9.424;2022-09-16T04:36:18;100232.66;;;10.74;90.85
8653;BME280;4364;52.426;9.424;2022-09-16T04:38:46;100225.38;;;10.69;91.24
8653;BME280;4364;52.426;9.424;2022-09-16T04:41:21;100225.63;;;10.73;91.59
8653;BME280;4364;52.426;9.424;2022-09-16T04:43:55;100229.00;;;10.84;90.92
8653;BME280;4364;52.426;9.424;2022-09-16T04:46:24;100227.50;;;10.72;91.64
8653;BME280;4364;52.426;9.424;2022-09-16T04:48:52;100227.50;;;10.72;91.51
8653;BME280;4364;52.426;9.424;2022-09-16T04:51:19;100220.56;;;10.85;90.71
8653;BME280;4364;52.426;9.424;2022-09-16T04:53:48;100238.81;;;10.85;90.86
8653;BME280;4364;52.426;9.424;2022-09-16T04:56:20;100228.50;;;10.82;90.77
8653;BME280;4364;52.426;9.424;2022-09-16T04:58:49;100234.28;;;10.75;91.55
8653;BME280;4364;52.426;9.424;2022-09-16T05:01:18;100235.56;;;10.83;91.33
8653;BME280;4364;52.426;9.424;2022-09-16T05:03:47;100235.78;;;10.86;91.13
8653;BME280;4364;52.426;9.424;2022-09-16T05:06:22;100231.22;;;10.82;91.34
8653;BME280;4364;52.426;9.424;2022-09-16T05:08:50;100227.16;;;10.79;91.95
8653;BME280;4364;52.426;9.424;2022-09-16T05:11:25;100220.78;;;10.89;91.17
8653;BME280;4364;52.426;9.424;2022-09-16T05:13:54;100229.25;;;10.87;91.42
8653;BME280;4364;52.426;9.424;2022-09-16T05:16:21;100224.78;;;10.97;90.86
8653;BME280;4364;52.426;9.424;2022-09-16T05:18:49;100220.72;;;10.94;90.68
8653;BME280;4364;52.426;9.424;2022-09-16T05:21:19;100228.94;;;10.89;90.98
8653;BME280;4364;52.426;9.424;2022-09-16T05:23:46;100225.66;;;10.92;91.16
8653;BME280;4364;52.426;9.424;2022-09-16T05:26:16;100233.00;;;10.91;91.02
8653;BME280;4364;52.426;9.424;2022-09-16T05:28:43;100231.72;;;10.84;91.42
8653;BME280;4364;52.426;9.424;2022-09-16T05:31:15;100227.34;;;10.88;91.16
8653;BME280;4364;52.426;9.424;2022-09-16T05:33:44;100229.78;;;10.89;90.81
8653;BME280;4364;52.426;9.424;2022-09-16T05:36:13;100233.94;;;10.82;91.11
8653;BME280;4364;52.426;9.424;2022-09-16T05:38:40;100234.97;;;10.86;91.40
8653;BME280;4364;52.426;9.424;2022-09-16T05:41:27;100242.50;;;10.94;90.48
8653;BME280;4364;52.426;9.424;2022-09-16T05:43:57;100221.72;;;11.03;89.42
8653;BME280;4364;52.426;9.424;2022-09-16T05:46:25;100224.38;;;11.08;89.14
8653;BME280;4364;52.426;9.424;2022-09-16T05:48:52;100220.31;;;11.06;88.47
8653;BME280;4364;52.426;9.424;2022-09-16T05:51:20;100217.34;;;11.02;89.02
8653;BME280;4364;52.426;9.424;2022-09-16T05:53:48;100215.19;;;11.04;88.65
8653;BME280;4364;52.426;9.424;2022-09-16T05:56:21;100216.94;;;11.14;88.60
8653;BME280;4364;52.426;9.424;2022-09-16T05:58:53;100215.03;;;11.15;88.34
8653;BME280;4364;52.426;9.424;2022-09-16T06:01:22;100225.63;;;11.16;87.79
8653;BME280;4364;52.426;9.424;2022-09-16T06:03:50;100228.09;;;11.12;88.13
8653;BME280;4364;52.426;9.424;2022-09-16T06:06:25;100223.28;;;11.09;87.78
8653;BME280;4364;52.426;9.424;2022-09-16T06:08:58;100230.25;;;11.16;87.93
8653;BME280;4364;52.426;9.424;2022-09-16T06:11:26;100223.94;;;11.20;87.29
8653;BME280;4364;52.426;9.424;2022-09-16T06:13:55;100226.38;;;11.22;86.88
8653;BME280;4364;52.426;9.424;2022-09-16T06:16:23;100219.84;;;11.23;87.02
8653;BME280;4364;52.426;9.424;2022-09-16T06:18:54;100232.75;;;11.12;87.81
8653;BME280;4364;52.426;9.424;2022-09-16T06:21:21;100221.88;;;11.12;88.05
8653;BME280;4364;52.426;9.424;2022-09-16T06:23:48;100223.56;;;11.08;88.35
8653;BME280;4364;52.426;9.424;2022-09-16T06:26:17;100223.91;;;11.01;88.43
8653;BME280;4364;52.426;9.424;2022-09-16T06:28:45;100231.16;;;11.11;88.25
8653;BME280;4364;52.426;9.424;2022-09-16T06:31:23;100226.28;;;11.08;88.13
8653;BME280;4364;52.426;9.424;2022-09-16T06:33:50;100227.97;;;11.04;88.62
8653;BME280;4364;52.426;9.424;2022-09-16T06:36:20;100226.28;;;11.08;88.13
8653;BME280;4364;52.426;9.424;2022-09-16T06:38:47;100236.34;;;11.07;88.14
8653;BME280;4364;52.426;9.424;2022-09-16T06:41:15;100224.53;;;11.17;87.46
8653;BME280;4364;52.426;9.424;2022-09-16T06:43:43;100222.03;;;11.21;87.13
8653;BME280;4364;52.426;9.424;2022-09-16T06:46:15;100215.34;;;11.13;87.08
8653;BME280;4364;52.426;9.424;2022-09-16T06:48:47;100219.84;;;11.23;86.81
8653;BME280;4364;52.426;9.424;2022-09-16T06:51:22;100217.84;;;11.28;86.18
8653;BME280;4364;52.426;9.424;2022-09-16T06:53:50;100213.38;;;11.38;85.47
8653;BME280;4364;52.426;9.424;2022-09-16T06:56:19;100214.69;;;11.40;85.58
8653;BME280;4364;52.426;9.424;2022-09-16T06:58:49;100222.56;;;11.42;85.33
8653;BME280;4364;52.426;9.424;2022-09-16T07:01:20;100216.03;;;11.43;84.92
8653;BME280;4364;52.426;9.424;2022-09-16T07:03:48;100219.09;;;11.36;84.75
8653;BME280;4364;52.426;9.424;2022-09-16T07:06:18;100213.16;;;11.53;84.16
8653;BME280;4364;52.426;9.424;2022-09-16T07:08:45;100217.47;;;11.54;84.32
8653;BME280;4364;52.426;9.424;2022-09-16T07:11:14;100218.72;;;11.62;84.19
8653;BME280;4364;52.426;9.424;2022-09-16T07:13:42;100225.56;;;11.59;83.65
8653;BME280;4364;52.426;9.424;2022-09-16T07:16:11;100220.56;;;11.66;83.90
8653;BME280;4364;52.426;9.424;2022-09-16T07:18:40;100228.66;;;11.72;84.07
8653;BME280;4364;52.426;9.424;2022-09-16T07:21:15;100226.00;;;11.85;81.91
8653;BME280;4364;52.426;9.424;2022-09-16T07:23:43;100231.53;;;11.80;79.91
8653;BME280;4364;52.426;9.424;2022-09-16T07:26:14;100228.56;;;11.96;80.12
8653;BME280;4364;52.426;9.424;2022-09-16T07:28:42;100228.88;;;11.94;80.57
8653;BME280;4364;52.426;9.424;2022-09-16T07:31:11;100227.78;;;11.95;79.70
8653;BME280;4364;52.426;9.424;2022-09-16T07:33:40;100221.94;;;12.02;79.70
8653;BME280;4364;52.426;9.424;2022-09-16T07:36:08;100226.88;;;12.00;79.23
8653;BME280;4364;52.426;9.424;2022-09-16T07:38:36;100227.72;;;12.14;78.46
8653;BME280;4364;52.426;9.424;2022-09-16T07:41:11;100229.66;;;12.28;77.58
8653;BME280;4364;52.426;9.424;2022-09-16T07:43:38;100235.38;;;12.45;76.69
8653;BME280;4364;52.426;9.424;2022-09-16T07:46:07;100242.38;;;12.51;76.67
8653;BME280;4364;52.426;9.424;2022-09-16T07:48:34;100245.41;;;12.64;75.94
8653;BME280;4364;52.426;9.424;2022-09-16T07:51:05;100244.19;;;12.70;75.52
8653;BME280;4364;52.426;9.424;2022-09-16T07:53:33;100247.22;;;12.82;75.15
8653;BME280;4364;52.426;9.424;2022-09-16T07:56:05;100246.63;;;12.71;75.12
8653;BME280;4364;52.426;9.424;2022-09-16T07:58:33;100249.94;;;12.68;75.07
8653;BME280;4364;52.426;9.424;2022-09-16T08:01:00;100244.50;;;12.68;74.80
8653;BME280;4364;52.426;9.424;2022-09-16T08:03:31;100252.75;;;12.49;74.38
8653;BME280;4364;52.426;9.424;2022-09-16T08:06:04;100246.78;;;12.61;74.30
8653;BME280;4364;52.426;9.424;2022-09-16T08:08:33;100241.66;;;12.73;73.17
8653;BME280;4364;52.426;9.424;2022-09-16T08:11:00;100252.19;;;12.80;73.25
8653;BME280;4364;52.426;9.424;2022-09-16T08:13:29;100247.63;;;12.89;71.96
8653;BME280;4364;52.426;9.424;2022-09-16T08:16:00;100244.88;;;12.89;72.12
8653;BME280;4364;52.426;9.424;2022-09-16T08:18:28;100239.84;;;12.96;72.05
8653;BME280;4364;52.426;9.424;2022-09-16T08:20:55;100244.06;;;13.30;71.04
8653;BME280;4364;52.426;9.424;2022-09-16T08:23:21;100245.28;;;13.38;70.20
8653;BME280;4364;52.426;9.424;2022-09-16T08:25:56;100244.16;;;13.39;69.09
8653;BME280;4364;52.426;9.424;2022-09-16T08:28:24;100242.16;;;13.45;68.71
8653;BME280;4364;52.426;9.424;2022-09-16T08:30:51;100239.59;;;13.48;68.85
8653;BME280;4364;52.426;9.424;2022-09-16T08:33:19;100240.09;;;13.50;67.52
8653;BME280;4364;52.426;9.424;2022-09-16T08:36:15;100248.66;;;13.58;65.19
8653;BME280;4364;52.426;9.424;2022-09-16T08:38:43;100246.28;;;13.79;65.18
8653;BME280;4364;52.426;9.424;2022-09-16T08:44:28;100241.75;;;13.74;64.71
8653;BME280;4364;52.426;9.424;2022-09-16T08:47:02;100242.53;;;13.75;65.08
8653;BME280;4364;52.426;9.424;2022-09-16T08:49:39;100231.56;;;13.88;64.90
8653;BME280;4364;52.426;9.424;2022-09-16T08:52:41;100237.47;;;14.04;64.50
8653;BME280;4364;52.426;9.424;2022-09-16T08:55:17;100233.03;;;14.17;64.10
8653;BME280;4364;52.426;9.424;2022-09-16T08:58:24;100234.41;;;14.06;63.50
8653;BME280;4364;52.426;9.424;2022-09-16T09:01:02;100235.16;;;13.98;63.75
8653;BME280;4364;52.426;9.424;2022-09-16T09:03:38;100248.69;;;14.03;62.78
8653;BME280;4364;52.426;9.424;2022-09-16T09:12:13;100251.13;;;14.04;62.44
8653;BME280;4364;52.426;9.424;2022-09-16T09:20:32;100250.50;;;14.07;62.04
8653;BME280;4364;52.426;9.424;2022-09-16T09:25:57;100247.25;;;14.28;59.95
8653;BME280;4364;52.426;9.424;2022-09-16T09:31:03;100236.38;;;14.37;59.80
8653;BME280;4364;52.426;9.424;2022-09-16T09:39:51;100230.81;;;14.82;56.63
8653;BME280;4364;52.426;9.424;2022-09-16T09:42:32;100226.22;;;15.17;56.95
8653;BME280;4364;52.426;9.424;2022-09-16T09:45:14;100233.28;;;15.01;55.95
8653;BME280;4364;52.426;9.424;2022-09-16T09:48:12;100229.97;;;15.30;55.82
8653;BME280;4364;52.426;9.424;2022-09-16T09:50:45;100214.81;;;15.42;56.07
8653;BME280;4364;52.426;9.424;2022-09-16T09:53:32;100213.53;;;15.39;54.12
8653;BME280;4364;52.426;9.424;2022-09-16T09:56:15;100212.91;;;15.42;54.30
8653;BME280;4364;52.426;9.424;2022-09-16T10:01:17;100209.66;;;15.31;55.07
8653;BME280;4364;52.426;9.424;2022-09-16T10:03:47;100205.81;;;15.59;54.28
8653;BME280;4364;52.426;9.424;2022-09-16T10:06:21;100214.34;;;15.83;53.81
8653;BME280;4364;52.426;9.424;2022-09-16T10:08:50;100214.03;;;15.85;52.87
8653;BME280;4364;52.426;9.424;2022-09-16T10:11:20;100213.06;;;15.54;52.43
8653;BME280;4364;52.426;9.424;2022-09-16T10:13:58;100215.78;;;15.28;52.15
8653;BME280;4364;52.426;9.424;2022-09-16T10:16:28;100211.84;;;15.03;52.58
8653;BME280;4364;52.426;9.424;2022-09-16T10:19:14;100216.22;;;14.95;53.32
8653;BME280;4364;52.426;9.424;2022-09-16T10:21:48;100201.69;;;14.95;52.73
8653;BME280;4364;52.426;9.424;2022-09-16T10:24:31;100207.25;;;15.47;51.56
8653;BME280;4364;52.426;9.424;2022-09-16T10:27:00;100203.53;;;15.69;51.35
8653;BME280;4364;52.426;9.424;2022-09-16T10:29:28;100202.41;;;15.62;49.41
8653;BME280;4364;52.426;9.424;2022-09-16T10:32:00;100188.72;;;15.70;48.97
8653;BME280;4364;52.426;9.424;2022-09-16T10:34:39;100190.50;;;15.92;48.88
8653;BME280;4364;52.426;9.424;2022-09-16T10:39:43;100191.00;;;15.77;48.56
8653;BME280;4364;52.426;9.424;2022-09-16T10:42:19;100188.56;;;15.58;48.55
8653;BME280;4364;52.426;9.424;2022-09-16T10:44:47;100189.50;;;15.53;49.01
8653;BME280;4364;52.426;9.424;2022-09-16T10:47:27;100182.09;;;15.80;48.00
8653;BME280;4364;52.426;9.424;2022-09-16T10:49:58;100185.78;;;16.02;48.99
8653;BME280;4364;52.426;9.424;2022-09-16T10:52:39;100179.31;;;16.06;48.80
8653;BME280;4364;52.426;9.424;2022-09-16T10:57:46;100170.06;;;16.28;48.42
8653;BME280;4364;52.426;9.424;2022-09-16T11:00:36;100170.34;;;16.44;47.23
8653;BME280;4364;52.426;9.424;2022-09-16T11:14:54;100160.03;;;17.22;45.14
8653;BME280;4364;52.426;9.424;2022-09-16T11:17:51;100150.94;;;17.09;45.95
8653;BME280;4364;52.426;9.424;2022-09-16T11:21:03;100163.56;;;16.72;46.89
8653;BME280;4364;52.426;9.424;2022-09-16T11:26:43;100158.28;;;16.28;47.94
8653;BME280;4364;52.426;9.424;2022-09-16T11:32:02;100170.53;;;15.57;53.45
8653;BME280;4364;52.426;9.424;2022-09-16T11:37:34;100179.00;;;14.94;55.28
8653;BME280;4364;52.426;9.424;2022-09-16T11:40:14;100179.94;;;14.81;55.20
8653;BME280;4364;52.426;9.424;2022-09-16T11:45:41;100180.78;;;14.90;54.39
8653;BME280;4364;52.426;9.424;2022-09-16T11:51:19;100160.03;;;15.50;53.64
8653;BME280;4364;52.426;9.424;2022-09-16T11:53:56;100161.94;;;16.02;53.93
8653;BME280;4364;52.426;9.424;2022-09-16T11:56:44;100164.16;;;16.09;50.84
8653;BME280;4364;52.426;9.424;2022-09-16T11:59:34;100141.59;;;16.42;50.73
8653;BME280;4364;52.426;9.424;2022-09-16T12:05:16;100151.69;;;16.20;50.08
8653;BME280;4364;52.426;9.424;2022-09-16T12:07:49;100140.81;;;16.41;49.77
8653;BME280;4364;52.426;9.424;2022-09-16T12:10:24;100134.31;;;16.84;48.25
8653;BME280;4364;52.426;9.424;2022-09-16T12:13:03;100136.41;;;16.88;48.56
8653;BME280;4364;52.426;9.424;2022-09-16T12:16:02;100142.94;;;16.36;48.13
8653;BME280;4364;52.426;9.424;2022-09-16T12:18:57;100145.41;;;16.20;48.72
8653;BME280;4364;52.426;9.424;2022-09-16T12:21:36;100140.47;;;16.04;48.65
8653;BME280;4364;52.426;9.424;2022-09-16T12:24:24;100132.91;;;15.75;47.78
8653;BME280;4364;52.426;9.424;2022-09-16T12:27:04;100150.50;;;15.22;48.60
8653;BME280;4364;52.426;9.424;2022-09-16T12:29:53;100171.69;;;14.72;49.74
8653;BME280;4364;52.426;9.424;2022-09-16T12:32:47;100153.88;;;14.43;50.81
8653;BME280;4364;52.426;9.424;2022-09-16T12:35:19;100161.09;;;14.39;51.78
8653;BME280;4364;52.426;9.424;2022-09-16T12:37:48;100151.00;;;14.49;51.92
8653;BME280;4364;52.426;9.424;2022-09-16T12:40:49;100157.44;;;14.53;51.40
8653;BME280;4364;52.426;9.424;2022-09-16T12:49:09;100177.06;;;14.55;53.54
8653;BME280;4364;52.426;9.424;2022-09-16T12:51:58;100180.50;;;14.29;54.98
8653;BME280;4364;52.426;9.424;2022-09-16T12:58:06;100154.75;;;13.90;58.93
8653;BME280;4364;52.426;9.424;2022-09-16T13:00:42;100139.59;;;14.15;56.24
8653;BME280;4364;52.426;9.424;2022-09-16T13:03:20;100152.00;;;14.61;54.40
8653;BME280;4364;52.426;9.424;2022-09-16T13:05:50;100138.44;;;15.14;49.48
8653;BME280;4364;52.426;9.424;2022-09-16T13:08:22;100143.94;;;15.49;47.25
8653;BME280;4364;52.426;9.424;2022-09-16T13:11:02;100144.56;;;15.81;46.58
8653;BME280;4364;52.426;9.424;2022-09-16T13:13:55;100158.41;;;15.84;44.97
8653;BME280;4364;52.426;9.424;2022-09-16T13:16:28;100147.50;;;16.23;44.87
8653;BME280;4364;52.426;9.424;2022-09-16T13:19:24;100145.78;;;16.48;44.42
8653;BME280;4364;52.426;9.424;2022-09-16T13:21:58;100149.81;;;16.51;45.63
8653;BME280;4364;52.426;9.424;2022-09-16T13:24:35;100172.44;;;15.83;47.02
8653;BME280;4364;52.426;9.424;2022-09-16T13:27:27;100160.84;;;15.25;49.98
8653;BME280;4364;52.426;9.424;2022-09-16T13:37:45;100137.47;;;15.36;48.01
8653;BME280;4364;52.426;9.424;2022-09-16T13:40:30;100132.31;;;15.52;50.05
8653;BME280;4364;52.426;9.424;2022-09-16T13:43:36;100134.72;;;15.80;49.13
8653;BME280;4364;52.426;9.424;2022-09-16T13:46:13;100136.81;;;15.48;49.76
8653;BME280;4364;52.426;9.424;2022-09-16T13:51:30;100118.94;;;15.50;50.88
8653;BME280;4364;52.426;9.424;2022-09-16T13:54:03;100120.56;;;15.43;51.53
8653;BME280;4364;52.426;9.424;2022-09-16T13:57:09;100119.75;;;15.42;52.71
8653;BME280;4364;52.426;9.424;2022-09-16T14:11:34;100100.56;;;15.42;54.32
8653;BME280;4364;52.426;9.424;2022-09-16T14:14:24;100108.66;;;15.38;53.99
8653;BME280;4364;52.426;9.424;2022-09-16T14:17:38;100094.47;;;15.28;53.87
8653;BME280;4364;52.426;9.424;2022-09-16T14:20:19;100097.50;;;15.35;53.53
8653;BME280;4364;52.426;9.424;2022-09-16T14:22:46;100091.72;;;15.28;54.61
8653;BME280;4364;52.426;9.424;2022-09-16T14:25:28;100097.81;;;15.33;55.68
8653;BME280;4364;52.426;9.424;2022-09-16T14:28:15;100100.28;;;15.09;56.61
8653;BME280;4364;52.426;9.424;2022-09-16T14:30:53;100098.81;;;14.94;56.54
8653;BME280;4364;52.426;9.424;2022-09-16T14:33:23;100086.38;;;14.79;56.97
8653;BME280;4364;52.426;9.424;2022-09-16T14:35:52;100092.50;;;14.76;57.06
8653;BME280;4364;52.426;9.424;2022-09-16T14:38:29;100079.94;;;14.66;56.97
8653;BME280;4364;52.426;9.424;2022-09-16T14:41:30;100072.47;;;14.58;57.29
8653;BME280;4364;52.426;9.424;2022-09-16T14:44:10;100078.47;;;14.60;57.32
8653;BME280;4364;52.426;9.424;2022-09-16T14:46:44;100079.13;;;14.74;55.55
8653;BME280;4364;52.426;9.424;2022-09-16T14:49:13;100071.91;;;14.87;55.54
8653;BME280;4364;52.426;9.424;2022-09-16T14:51:49;100063.84;;;14.91;54.66
8653;BME280;4364;52.426;9.424;2022-09-16T14:54:18;100063.84;;;14.99;54.58
8653;BME280;4364;52.426;9.424;2022-09-16T14:59:33;100054.84;;;15.25;54.81
8653;BME280;4364;52.426;9.424;2022-09-16T15:02:19;100059.75;;;15.58;53.44
8653;BME280;4364;52.426;9.424;2022-09-16T15:04:58;100059.91;;;15.70;51.32
8653;BME280;4364;52.426;9.424;2022-09-16T15:07:30;100056.28;;;15.96;49.08
8653;BME280;4364;52.426;9.424;2022-09-16T15:10:28;100057.28;;;15.91;49.76
8653;BME280;4364;52.426;9.424;2022-09-16T15:13:11;100054.84;;;15.90;50.58
8653;BME280;4364;52.426;9.424;2022-09-16T15:15:46;100059.53;;;15.89;50.56
8653;BME280;4364;52.426;9.424;2022-09-16T15:18:30;100058.91;;;15.75;49.68
8653;BME280;4364;52.426;9.424;2022-09-16T15:21:05;100064.59;;;15.79;50.92
8653;BME280;4364;52.426;9.424;2022-09-16T15:23:33;100057.00;;;15.67;50.36
8653;BME280;4364;52.426;9.424;2022-09-16T15:26:19;100050.72;;;15.66;50.34
8653;BME280;4364;52.426;9.424;2022-09-16T15:29:02;100051.75;;;15.44;51.43
8653;BME280;4364;52.426;9.424;2022-09-16T15:31:43;100056.25;;;15.31;51.76
8653;BME280;4364;52.426;9.424;2022-09-16T15:36:45;100045.66;;;15.04;52.34
8653;BME280;4364;52.426;9.424;2022-09-16T15:39:47;100057.72;;;15.11;51.93
8653;BME280;4364;52.426;9.424;2022-09-16T15:42:19;100055.47;;;15.05;52.17
8653;BME280;4364;52.426;9.424;2022-09-16T15:48:00;100054.97;;;14.68;54.43
8653;BME280;4364;52.426;9.424;2022-09-16T15:50:38;100057.88;;;14.62;55.18
8653;BME280;4364;52.426;9.424;2022-09-16T15:53:12;100054.16;;;14.58;55.73
8653;BME280;4364;52.426;9.424;2022-09-16T16:03:49;100043.34;;;14.53;56.66
8653;BME280;4364;52.426;9.424;2022-09-16T16:06:18;100052.00;;;14.46;56.38
8653;BME280;4364;52.426;9.424;2022-09-16T16:08:51;100049.28;;;14.46;56.47
8653;BME280;4364;52.426;9.424;2022-09-16T16:11:20;100056.84;;;14.41;56.76
8653;BME280;4364;52.426;9.424;2022-09-16T16:13:48;100051.50;;;14.27;56.60